Time,TemperatureF,DewpointF,PressureIn,WindDirection,WindDirectionDegrees,WindSpeedMPH,WindSpeedGustMPH,Humidity,HourlyPrecipIn,Conditions,Clouds,dailyrainin,SolarRadiationWatts/m^2,SoftwareType,DateUTC
2013-10-03 00:03:00,70.4,67.0,29.97,ENE,73,0.5,1.2,89,0.00,RA,,0.00,0.0,WeatherDisplay:10.37,2013-10-03 05:03:00,
2013-10-03 00:08:00,70.4,67.0,29.97,ENE,73,0.8,1.3,89,0.00,RA,,0.00,0.0,WeatherDisplay:10.37,2013-10-03 05:08:00,
2013-10-03 00:13:00,70.3,66.9,29.97,East,91,0.0,0.0,89,0.00,CLR,,0.00,0.0,WeatherDisplay:10.37,2013-10-03 05:13:00,
2013-10-03 00:18:00,70.2,67.1,29.97,East,91,0.0,1.2,90,0.00,CLR,,0.00,0.0,WeatherDisplay:10.37,2013-10-03 05:18:00,
2013-10-03 00:23:00,70.1,67.0,29.97,East,91,0.2,1.3,90,0.00,CLR,,0.00,0.0,WeatherDisplay:10.37,2013-10-03 05:23:00,
2013-10-03 00:28:00,70.2,67.1,29.97,North,360,0.0,0.0,90,0.00,CLR,,0.00,0.0,WeatherDisplay:10.37,2013-10-03 05:28:00,
2013-10-03 00:33:00,70.1,67.0,29.97,North,5,0.0,0.0,90,0.00,CLR,,0.00,0.0,WeatherDisplay:10.37,2013-10-03 05:33:00,
2013-10-03 00:38:00,70.0,66.9,29.97,North,5,0.7,4.0,90,0.00,CLR,,0.00,0.0,WeatherDisplay:10.37,2013-10-03 05:38:00,
2013-10-03 00:43:00,70.0,66.9,29.97,NNE,29,1.7,2.6,90,0.00,CLR,,0.00,0.0,WeatherDisplay:10.37,2013-10-03 05:43:00,
2013-10-03 00:48:00,69.9,66.8,29.97,NNE,30,0.4,1.3,90,0.00,CLR,,0.00,0.0,WeatherDisplay:10.37,2013-10-03 05:48:00,
2013-10-03 00:53:00,69.8,66.7,29.97,NNE,30,0.0,0.0,90,0.00,CLR,,0.00,0.0,WeatherDisplay:10.37,2013-10-03 05:53:00,
2013-10-03 00:58:00,69.8,66.7,29.97,NNE,30,0.0,0.0,90,0.00,CLR,,0.00,0.0,WeatherDisplay:10.37,2013-10-03 05:58:00,
2013-10-03 01:03:00,69.6,66.5,29.96,NNE,30,0.0,0.0,90,0.00,BKN,,0.00,0.0,WeatherDisplay:10.37,2013-10-03 06:03:00,
2013-10-03 01:08:00,69.5,66.4,29.97,NNE,30,0.0,0.0,90,0.00,BKN,,0.00,0.0,WeatherDisplay:10.37,2013-10-03 06:08:00,
2013-10-03 01:13:00,69.3,66.2,29.97,NNE,30,0.0,0.0,90,0.00,BKN,,0.00,0.0,WeatherDisplay:10.37,2013-10-03 06:13:00,
2013-10-03 01:18:00,69.2,66.1,29.96,NNE,30,0.7,2.3,90,0.00,BKN,,0.00,0.0,WeatherDisplay:10.37,2013-10-03 06:18:00,
2013-10-03 01:23:00,69.1,66.0,29.96,NNE,30,0.0,0.0,90,0.00,BKN,,0.00,0.0,WeatherDisplay:10.37,2013-10-03 06:23:00,
2013-10-03 01:28:00,69.0,65.9,29.96,NNE,30,0.0,2.3,90,0.00,BKN,,0.00,0.0,WeatherDisplay:10.37,2013-10-03 06:28:00,
2013-10-03 01:33:00,68.7,65.6,29.96,NNE,30,0.0,0.0,90,0.00,BKN,,0.00,0.0,WeatherDisplay:10.37,2013-10-03 06:33:00,
2013-10-03 01:38:00,68.6,65.9,29.96,NNE,30,0.0,0.0,91,0.00,BKN,,0.00,0.0,WeatherDisplay:10.37,2013-10-03 06:38:00,
2013-10-03 01:43:00,68.6,65.9,29.96,NNE,30,0.0,0.0,91,0.00,BKN,,0.00,0.0,WeatherDisplay:10.37,2013-10-03 06:43:00,
2013-10-03 01:48:00,68.5,65.8,29.96,NNE,30,0.0,0.0,91,0.00,BKN,,0.00,0.0,WeatherDisplay:10.37,2013-10-03 06:48:00,
2013-10-03 01:53:00,68.6,65.9,29.96,NNE,30,0.0,0.0,91,0.00,BKN,,0.00,0.0,WeatherDisplay:10.37,2013-10-03 06:53:00,
2013-10-03 01:58:00,68.6,65.9,29.96,NNE,30,0.0,0.0,91,0.00,BKN,,0.00,0.0,WeatherDisplay:10.37,2013-10-03 06:58:00,
2013-10-03 02:03:00,68.6,65.9,29.96,NNE,30,0.0,0.0,91,0.00,OVC,,0.00,0.0,WeatherDisplay:10.37,2013-10-03 07:03:00,
2013-10-03 02:08:00,68.8,66.1,29.96,East,80,1.2,2.3,91,0.00,OVC,,0.00,0.0,WeatherDisplay:10.37,2013-10-03 07:08:00,
2013-10-03 02:13:00,68.9,66.2,29.96,ENE,57,0.7,2.3,91,0.00,OVC,,0.00,0.0,WeatherDisplay:10.37,2013-10-03 07:13:00,
2013-10-03 02:18:00,69.0,65.9,29.96,NE,55,0.2,1.2,90,0.00,OVC,,0.00,0.0,WeatherDisplay:10.37,2013-10-03 07:18:00,
2013-10-03 02:23:00,69.0,65.9,29.96,NE,55,0.6,2.6,90,0.00,OVC,,0.00,0.0,WeatherDisplay:10.37,2013-10-03 07:23:00,
2013-10-03 02:28:00,69.1,66.0,29.96,NE,55,0.0,0.0,90,0.00,OVC,,0.00,0.0,WeatherDisplay:10.37,2013-10-03 07:28:00,
2013-10-03 02:33:00,69.1,66.0,29.96,NE,54,0.0,1.2,90,0.00,OVC,,0.00,0.0,WeatherDisplay:10.37,2013-10-03 07:33:00,
2013-10-03 02:38:00,69.2,66.1,29.96,North,5,0.0,0.0,90,0.00,OVC,,0.00,0.0,WeatherDisplay:10.37,2013-10-03 07:38:00,
2013-10-03 02:43:00,69.2,66.1,29.95,North,5,0.2,0.0,90,0.00,OVC,,0.00,0.0,WeatherDisplay:10.37,2013-10-03 07:43:00,
2013-10-03 02:48:00,69.1,66.0,29.95,NNE,17,0.0,0.0,90,0.00,OVC,,0.00,0.0,WeatherDisplay:10.37,2013-10-03 07:48:00,
2013-10-03 02:53:00,69.2,66.1,29.95,ENE,72,0.0,0.0,90,0.00,OVC,,0.00,0.0,WeatherDisplay:10.37,2013-10-03 07:53:00,
2013-10-03 02:58:00,69.2,66.1,29.95,ENE,67,0.0,1.2,90,0.00,OVC,,0.00,0.0,WeatherDisplay:10.37,2013-10-03 07:58:00,
2013-10-03 03:03:00,69.2,66.1,29.95,ENE,67,0.2,1.3,90,0.00,SCT,,0.00,0.0,WeatherDisplay:10.37,2013-10-03 08:03:00,
2013-10-03 03:08:00,69.3,66.2,29.95,NNE,30,0.2,0.0,90,0.00,SCT,,0.00,0.0,WeatherDisplay:10.37,2013-10-03 08:08:00,
2013-10-03 03:13:00,69.3,66.2,29.95,ENE,73,0.5,2.3,90,0.00,SCT,,0.00,0.0,WeatherDisplay:10.37,2013-10-03 08:13:00,
2013-10-03 03:18:00,69.3,66.2,29.95,ENE,73,0.0,1.2,90,0.00,SCT,,0.00,0.0,WeatherDisplay:10.37,2013-10-03 08:18:00,
2013-10-03 03:23:00,69.3,66.2,29.95,North,11,1.4,2.3,90,0.00,SCT,,0.00,0.0,WeatherDisplay:10.37,2013-10-03 08:23:00,
2013-10-03 03:28:00,69.4,66.3,29.95,North,11,0.0,0.0,90,0.00,SCT,,0.00,0.0,WeatherDisplay:10.37,2013-10-03 08:28:00,
2013-10-03 03:33:00,69.2,66.1,29.95,North,11,0.0,0.0,90,0.00,SCT,,0.00,0.0,WeatherDisplay:10.37,2013-10-03 08:33:00,
2013-10-03 03:38:00,69.2,66.1,29.95,NNE,20,0.2,0.0,90,0.00,SCT,,0.00,0.0,WeatherDisplay:10.37,2013-10-03 08:38:00,
2013-10-03 03:43:00,69.3,66.2,29.95,ENE,62,0.0,0.0,90,0.00,SCT,,0.00,0.0,WeatherDisplay:10.37,2013-10-03 08:43:00,
2013-10-03 03:48:00,69.4,66.3,29.95,ENE,67,0.0,1.2,90,0.00,SCT,,0.00,0.0,WeatherDisplay:10.37,2013-10-03 08:48:00,
2013-10-03 03:53:00,69.4,66.3,29.95,ENE,67,0.0,0.0,90,0.00,SCT,,0.00,0.0,WeatherDisplay:10.37,2013-10-03 08:53:00,
2013-10-03 03:58:00,69.4,66.3,29.95,ENE,67,0.0,0.0,90,0.00,SCT,,0.00,0.0,WeatherDisplay:10.37,2013-10-03 08:58:00,
2013-10-03 04:03:00,69.4,66.3,29.95,ENE,67,0.0,0.0,90,0.00,SCT,,0.00,0.0,WeatherDisplay:10.37,2013-10-03 09:03:00,
2013-10-03 04:08:00,69.4,66.3,29.95,East,79,1.0,2.3,90,0.00,SCT,,0.00,0.0,WeatherDisplay:10.37,2013-10-03 09:08:00,
2013-10-03 04:13:00,69.5,66.4,29.95,East,84,0.0,0.0,90,0.00,SCT,,0.00,0.0,WeatherDisplay:10.37,2013-10-03 09:13:00,
2013-10-03 04:18:00,69.6,66.5,29.95,East,84,0.1,1.2,90,0.00,SCT,,0.00,0.0,WeatherDisplay:10.37,2013-10-03 09:18:00,
2013-10-03 04:23:00,69.5,66.1,29.95,East,84,0.0,0.0,89,0.00,SCT,,0.00,0.0,WeatherDisplay:10.37,2013-10-03 09:23:00,
2013-10-03 04:28:00,69.6,66.2,29.95,East,84,0.0,2.3,89,0.00,SCT,,0.00,0.0,WeatherDisplay:10.37,2013-10-03 09:28:00,
2013-10-03 04:33:00,69.6,66.2,29.94,East,84,0.0,0.0,89,0.00,SCT,,0.00,0.0,WeatherDisplay:10.37,2013-10-03 09:33:00,
2013-10-03 04:38:00,69.5,66.1,29.94,East,84,1.8,2.3,89,0.00,SCT,,0.00,0.0,WeatherDisplay:10.37,2013-10-03 09:38:00,
2013-10-03 04:43:00,69.5,66.1,29.94,East,92,0.0,2.3,89,0.00,SCT,,0.00,0.0,WeatherDisplay:10.37,2013-10-03 09:43:00,
2013-10-03 04:48:00,69.5,66.1,29.94,East,99,0.0,0.0,89,0.00,SCT,,0.00,0.0,WeatherDisplay:10.37,2013-10-03 09:48:00,
2013-10-03 04:53:00,69.5,66.1,29.94,East,95,0.5,1.2,89,0.00,SCT,,0.00,0.0,WeatherDisplay:10.37,2013-10-03 09:53:00,
2013-10-03 04:58:00,69.4,66.0,29.94,East,91,1.7,2.3,89,0.00,SCT,,0.00,0.0,WeatherDisplay:10.37,2013-10-03 09:58:00,
2013-10-03 05:03:00,69.4,66.0,29.94,East,91,0.0,2.3,89,0.00,FEW,,0.00,0.0,WeatherDisplay:10.37,2013-10-03 10:03:00,
2013-10-03 05:08:00,69.4,66.0,29.94,East,91,0.8,2.3,89,0.00,FEW,,0.00,0.0,WeatherDisplay:10.37,2013-10-03 10:08:00,
2013-10-03 05:13:00,69.4,66.0,29.94,East,91,0.6,1.3,89,0.00,FEW,,0.00,0.0,WeatherDisplay:10.37,2013-10-03 10:13:00,
2013-10-03 05:18:00,69.4,66.0,29.94,ESE,104,0.1,0.0,89,0.00,FEW,,0.00,0.0,WeatherDisplay:10.37,2013-10-03 10:18:00,
2013-10-03 05:23:00,69.3,65.9,29.94,East,97,0.0,0.0,89,0.00,FEW,,0.00,0.0,WeatherDisplay:10.37,2013-10-03 10:23:00,
2013-10-03 05:28:00,69.3,65.9,29.94,East,88,0.0,0.0,89,0.00,FEW,,0.00,0.0,WeatherDisplay:10.37,2013-10-03 10:28:00,
2013-10-03 05:33:00,69.3,65.9,29.94,North,11,0.0,0.0,89,0.00,FEW,,0.00,0.0,WeatherDisplay:10.37,2013-10-03 10:33:00,
2013-10-03 05:38:00,69.2,65.8,29.94,NNE,13,0.8,1.3,89,0.00,FEW,,0.00,0.0,WeatherDisplay:10.37,2013-10-03 10:38:00,
2013-10-03 05:43:00,69.1,66.0,29.94,East,86,0.0,0.0,90,0.00,FEW,,0.00,0.0,WeatherDisplay:10.37,2013-10-03 10:43:00,
2013-10-03 05:48:00,69.0,65.9,29.94,ESE,104,0.2,1.2,90,0.00,FEW,,0.00,0.0,WeatherDisplay:10.37,2013-10-03 10:48:00,
2013-10-03 05:53:00,69.0,65.9,29.94,ESE,104,0.0,1.3,90,0.00,FEW,,0.00,0.0,WeatherDisplay:10.37,2013-10-03 10:53:00,
2013-10-03 05:59:00,68.8,65.7,29.95,ESE,104,0.1,1.2,90,0.00,FEW,,0.00,0.0,WeatherDisplay:10.37,2013-10-03 10:59:00,
2013-10-03 06:04:00,68.7,65.6,29.95,ESE,104,0.0,0.0,90,0.00,BKN,,0.00,0.0,WeatherDisplay:10.37,2013-10-03 11:04:00,
2013-10-03 06:09:00,68.6,65.5,29.95,East,86,0.4,2.3,90,0.00,BKN,,0.00,0.0,WeatherDisplay:10.37,2013-10-03 11:09:00,
2013-10-03 06:14:00,68.5,65.4,29.95,East,90,0.0,0.0,90,0.00,BKN,,0.00,0.0,WeatherDisplay:10.37,2013-10-03 11:14:00,
2013-10-03 06:19:00,68.4,65.7,29.95,East,90,0.1,1.2,91,0.00,BKN,,0.00,0.0,WeatherDisplay:10.37,2013-10-03 11:19:00,
2013-10-03 06:24:00,68.5,65.8,29.95,East,90,1.4,2.6,91,0.00,BKN,,0.00,0.0,WeatherDisplay:10.37,2013-10-03 11:24:00,
2013-10-03 06:29:00,68.5,65.8,29.95,East,90,0.0,0.0,91,0.00,BKN,,0.00,0.0,WeatherDisplay:10.37,2013-10-03 11:29:00,
2013-10-03 06:34:00,68.6,65.9,29.95,East,90,0.1,1.2,91,0.00,BKN,,0.00,0.0,WeatherDisplay:10.37,2013-10-03 11:34:00,
2013-10-03 06:39:00,68.6,65.9,29.95,East,90,0.1,1.2,91,0.00,BKN,,0.00,0.0,WeatherDisplay:10.37,2013-10-03 11:39:00,
2013-10-03 06:44:00,68.8,66.1,29.95,East,90,0.0,0.0,91,0.00,BKN,,0.00,0.0,WeatherDisplay:10.37,2013-10-03 11:44:00,
2013-10-03 06:49:00,68.8,66.1,29.95,East,90,0.0,0.0,91,0.00,BKN,,0.00,0.0,WeatherDisplay:10.37,2013-10-03 11:49:00,
2013-10-03 06:54:00,68.9,66.2,29.95,East,90,0.0,0.0,91,0.00,BKN,,0.00,0.0,WeatherDisplay:10.37,2013-10-03 11:54:00,
2013-10-03 06:59:00,68.8,66.1,29.95,East,90,0.0,0.0,91,0.00,BKN,,0.00,0.0,WeatherDisplay:10.37,2013-10-03 11:59:00,
2013-10-03 07:04:00,68.7,66.0,29.95,East,90,0.0,0.0,91,0.00,SCT,,0.00,0.0,WeatherDisplay:10.37,2013-10-03 12:04:00,
2013-10-03 07:09:00,68.7,66.0,29.96,East,90,0.0,0.0,91,0.00,SCT,,0.00,0.0,WeatherDisplay:10.37,2013-10-03 12:09:00,
2013-10-03 07:14:00,68.6,65.9,29.96,East,90,0.0,0.0,91,0.00,SCT,,0.00,0.0,WeatherDisplay:10.37,2013-10-03 12:14:00,
2013-10-03 07:19:00,68.6,65.9,29.96,East,90,0.0,0.0,91,0.00,SCT,,0.00,0.0,WeatherDisplay:10.37,2013-10-03 12:19:00,
2013-10-03 07:24:00,68.9,66.2,29.96,East,90,0.0,0.0,91,0.00,SCT,,0.00,0.0,WeatherDisplay:10.37,2013-10-03 12:24:00,
2013-10-03 07:29:00,69.1,66.4,29.96,East,90,0.0,1.2,91,0.00,SCT,,0.00,7.0,WeatherDisplay:10.37,2013-10-03 12:29:00,
2013-10-03 07:34:00,69.2,66.5,29.96,East,90,1.4,2.6,91,0.00,SCT,,0.00,11.0,WeatherDisplay:10.37,2013-10-03 12:34:00,
2013-10-03 07:39:00,69.5,66.8,29.96,East,90,0.6,2.3,91,0.00,SCT,,0.00,12.0,WeatherDisplay:10.37,2013-10-03 12:39:00,
2013-10-03 07:44:00,69.6,66.9,29.96,East,89,0.0,0.0,91,0.00,SCT,,0.00,28.0,WeatherDisplay:10.37,2013-10-03 12:44:00,
2013-10-03 07:49:00,69.8,67.1,29.96,East,89,0.0,0.0,91,0.00,SCT,,0.00,26.0,WeatherDisplay:10.37,2013-10-03 12:49:00,
2013-10-03 07:54:00,69.9,66.8,29.96,East,89,0.0,0.0,90,0.00,SCT,,0.00,14.0,WeatherDisplay:10.37,2013-10-03 12:54:00,
2013-10-03 07:59:00,70.0,66.9,29.96,East,89,0.0,0.0,90,0.00,SCT,,0.00,11.0,WeatherDisplay:10.37,2013-10-03 12:59:00,
2013-10-03 08:04:00,70.1,67.0,29.96,East,89,0.0,0.0,90,0.00,BKN,,0.00,21.0,WeatherDisplay:10.37,2013-10-03 13:04:00,
2013-10-03 08:09:00,70.2,67.1,29.96,East,89,0.0,0.0,90,0.00,BKN,,0.00,49.0,WeatherDisplay:10.37,2013-10-03 13:09:00,
2013-10-03 08:14:00,70.4,67.3,29.96,East,89,0.6,1.2,90,0.00,BKN,,0.00,63.0,WeatherDisplay:10.37,2013-10-03 13:14:00,
2013-10-03 08:19:00,70.7,67.6,29.96,East,98,0.3,2.6,90,0.00,BKN,,0.00,62.0,WeatherDisplay:10.37,2013-10-03 13:19:00,
2013-10-03 08:24:00,71.0,67.9,29.96,East,90,3.6,5.8,90,0.00,BKN,,0.00,70.0,WeatherDisplay:10.37,2013-10-03 13:24:00,
2013-10-03 08:29:00,71.3,67.9,29.96,East,96,0.1,1.2,89,0.00,BKN,,0.00,83.0,WeatherDisplay:10.37,2013-10-03 13:29:00,
2013-10-03 08:34:00,71.5,68.1,29.96,East,96,0.6,1.2,89,0.00,BKN,,0.00,105.0,WeatherDisplay:10.37,2013-10-03 13:34:00,
2013-10-03 08:39:00,71.9,68.2,29.96,East,88,1.2,2.3,88,0.00,BKN,,0.00,301.0,WeatherDisplay:10.37,2013-10-03 13:39:00,
2013-10-03 08:44:00,72.4,68.3,29.96,East,94,1.4,2.3,87,0.00,BKN,,0.00,135.0,WeatherDisplay:10.37,2013-10-03 13:44:00,
2013-10-03 08:49:00,72.5,68.4,29.96,ENE,67,3.1,3.5,87,0.00,BKN,,0.00,116.0,WeatherDisplay:10.37,2013-10-03 13:49:00,
2013-10-03 08:54:00,72.5,68.4,29.96,ESE,102,0.4,1.3,87,0.00,BKN,,0.00,100.0,WeatherDisplay:10.37,2013-10-03 13:54:00,
2013-10-03 08:59:00,72.6,68.5,29.97,ESE,104,1.5,2.3,87,0.00,BKN,,0.00,104.0,WeatherDisplay:10.37,2013-10-03 13:59:00,
2013-10-03 09:04:00,72.7,68.6,29.97,East,93,5.0,6.9,87,0.00,CLR,,0.00,128.0,WeatherDisplay:10.37,2013-10-03 14:04:00,
2013-10-03 09:09:00,72.8,68.7,29.97,ESE,111,7.8,9.2,87,0.00,CLR,,0.00,109.0,WeatherDisplay:10.37,2013-10-03 14:09:00,
2013-10-03 09:14:00,72.8,68.7,29.97,East,96,5.2,8.1,87,0.00,CLR,,0.00,69.0,WeatherDisplay:10.37,2013-10-03 14:14:00,
2013-10-03 09:19:00,72.7,68.6,29.97,SE,126,4.1,6.9,87,0.00,CLR,,0.00,65.0,WeatherDisplay:10.37,2013-10-03 14:19:00,
2013-10-03 09:24:00,72.6,68.8,29.97,East,100,4.0,5.8,88,0.00,CLR,,0.00,107.0,WeatherDisplay:10.37,2013-10-03 14:24:00,
2013-10-03 09:29:00,72.9,69.1,29.97,SE,124,1.3,2.3,88,0.00,CLR,,0.00,190.0,WeatherDisplay:10.37,2013-10-03 14:29:00,
2013-10-03 09:34:00,73.7,69.6,29.97,ESE,107,3.4,3.5,87,0.00,CLR,,0.00,434.0,WeatherDisplay:10.37,2013-10-03 14:34:00,
2013-10-03 09:39:00,74.2,69.4,29.97,ESE,114,4.5,9.2,85,0.00,CLR,,0.00,195.0,WeatherDisplay:10.37,2013-10-03 14:39:00,
2013-10-03 09:44:00,74.4,69.9,29.97,ESE,103,2.4,4.0,86,0.00,CLR,,0.00,223.0,WeatherDisplay:10.37,2013-10-03 14:44:00,
2013-10-03 09:49:00,74.6,69.8,29.97,East,97,2.4,4.0,85,0.00,CLR,,0.00,487.0,WeatherDisplay:10.37,2013-10-03 14:49:00,
2013-10-03 09:54:00,74.8,70.0,29.97,North,5,2.1,4.0,85,0.00,CLR,,0.00,269.0,WeatherDisplay:10.37,2013-10-03 14:54:00,
2013-10-03 09:59:00,74.7,69.5,29.97,East,93,3.0,6.6,84,0.00,CLR,,0.00,167.0,WeatherDisplay:10.37,2013-10-03 14:59:00,
2013-10-03 10:04:00,75.0,70.2,29.97,East,98,2.3,6.9,85,0.00,CLR,,0.00,383.0,WeatherDisplay:10.37,2013-10-03 15:04:00,
2013-10-03 10:09:00,75.3,70.5,29.97,ENE,78,3.8,6.9,85,0.00,CLR,,0.00,345.0,WeatherDisplay:10.37,2013-10-03 15:09:00,
2013-10-03 10:14:00,75.9,70.7,29.97,ESE,119,4.5,5.8,84,0.00,CLR,,0.00,629.0,WeatherDisplay:10.37,2013-10-03 15:14:00,
2013-10-03 10:19:00,76.2,70.3,29.97,East,96,2.3,8.1,82,0.00,CLR,,0.00,585.0,WeatherDisplay:10.37,2013-10-03 15:19:00,
2013-10-03 10:24:00,76.2,70.7,29.98,NNE,27,4.1,6.6,83,0.00,CLR,,0.00,689.0,WeatherDisplay:10.37,2013-10-03 15:24:00,
2013-10-03 10:29:00,76.4,70.5,29.98,SSE,151,6.0,8.1,82,0.00,CLR,,0.00,272.0,WeatherDisplay:10.37,2013-10-03 15:29:00,
2013-10-03 10:34:00,76.3,70.8,29.98,ESE,119,3.9,10.6,83,0.00,CLR,,0.00,232.0,WeatherDisplay:10.37,2013-10-03 15:34:00,
2013-10-03 10:39:00,76.0,70.5,29.98,SE,131,3.2,3.5,83,0.00,CLR,,0.00,169.0,WeatherDisplay:10.37,2013-10-03 15:39:00,
2013-10-03 10:44:00,75.7,70.2,29.98,ESE,103,2.0,2.6,83,0.00,CLR,,0.00,227.0,WeatherDisplay:10.37,2013-10-03 15:44:00,
2013-10-03 10:49:00,76.1,70.6,29.98,ESE,102,2.9,6.9,83,0.00,BKN,,0.00,220.0,WeatherDisplay:10.37,2013-10-03 15:49:00,
2013-10-03 10:54:00,76.5,70.9,29.97,SE,126,3.0,4.0,83,0.00,BKN,,0.00,693.0,WeatherDisplay:10.37,2013-10-03 15:54:00,
2013-10-03 10:59:00,77.4,71.1,29.97,SE,132,5.5,6.9,81,0.00,BKN,,0.00,721.0,WeatherDisplay:10.37,2013-10-03 15:59:00,
2013-10-03 11:04:00,77.5,71.6,29.97,NNE,30,4.1,5.8,82,0.00,OVC,,0.00,756.0,WeatherDisplay:10.37,2013-10-03 16:04:00,
2013-10-03 11:09:00,78.5,71.8,29.97,North,11,2.5,3.5,80,0.00,OVC,,0.00,842.0,WeatherDisplay:10.37,2013-10-03 16:09:00,
2013-10-03 11:14:00,78.5,71.4,29.97,ENE,68,6.3,9.2,79,0.00,OVC,,0.00,322.0,WeatherDisplay:10.37,2013-10-03 16:14:00,
2013-10-03 11:19:00,78.0,71.3,29.97,ESE,109,1.4,2.3,80,0.00,OVC,,0.00,262.0,WeatherDisplay:10.37,2013-10-03 16:19:00,
2013-10-03 11:24:00,77.8,71.1,29.97,East,98,3.2,5.8,80,0.00,OVC,,0.00,202.0,WeatherDisplay:10.37,2013-10-03 16:24:00,
2013-10-03 11:29:00,77.5,71.2,29.97,NE,49,2.8,5.3,81,0.00,OVC,,0.00,318.0,WeatherDisplay:10.37,2013-10-03 16:29:00,
2013-10-03 11:34:00,78.1,71.8,29.97,SSW,207,3.4,3.5,81,0.00,OVC,,0.00,666.0,WeatherDisplay:10.37,2013-10-03 16:34:00,
2013-10-03 11:39:00,79.0,71.2,29.96,SE,124,3.0,5.8,77,0.00,OVC,,0.00,882.0,WeatherDisplay:10.37,2013-10-03 16:39:00,
2013-10-03 11:44:00,79.0,70.8,29.96,East,101,3.2,3.5,76,0.00,OVC,,0.00,432.0,WeatherDisplay:10.37,2013-10-03 16:44:00,
2013-10-03 11:49:00,79.7,71.1,29.96,ESE,115,4.4,6.9,75,0.00,OVC,,0.00,911.0,WeatherDisplay:10.37,2013-10-03 16:49:00,
2013-10-03 11:54:00,79.6,71.0,29.96,ESE,103,2.1,3.5,75,0.00,OVC,,0.00,244.0,WeatherDisplay:10.37,2013-10-03 16:54:00,
2013-10-03 11:59:00,79.6,71.8,29.96,East,89,1.0,2.6,77,0.00,OVC,,0.00,232.0,WeatherDisplay:10.37,2013-10-03 16:59:00,
2013-10-03 12:04:00,79.2,71.4,29.96,SE,144,1.4,2.6,77,0.00,OVC,,0.00,141.0,WeatherDisplay:10.37,2013-10-03 17:04:00,
2013-10-03 12:09:00,79.0,71.6,29.96,SE,124,0.0,0.0,78,0.00,OVC,,0.00,220.0,WeatherDisplay:10.37,2013-10-03 17:09:00,
2013-10-03 12:14:00,79.1,71.3,29.96,SE,132,0.9,2.6,77,0.00,OVC,,0.00,127.0,WeatherDisplay:10.37,2013-10-03 17:14:00,
2013-10-03 12:19:00,79.0,71.2,29.95,North,11,0.8,2.6,77,0.00,OVC,,0.00,120.0,WeatherDisplay:10.37,2013-10-03 17:19:00,
2013-10-03 12:24:00,79.1,71.3,29.95,North,11,0.0,1.2,77,0.00,OVC,,0.00,193.0,WeatherDisplay:10.37,2013-10-03 17:24:00,
2013-10-03 12:29:00,79.4,71.2,29.95,NW,323,3.4,3.5,76,0.00,OVC,,0.00,269.0,WeatherDisplay:10.37,2013-10-03 17:29:00,
2013-10-03 12:34:00,80.1,72.2,29.95,NW,315,4.5,5.8,77,0.00,OVC,,0.00,591.0,WeatherDisplay:10.37,2013-10-03 17:34:00,
2013-10-03 12:39:00,80.2,71.2,29.95,West,267,1.9,3.5,74,0.00,OVC,,0.00,160.0,WeatherDisplay:10.37,2013-10-03 17:39:00,
2013-10-03 12:44:00,80.1,70.3,29.94,WSW,241,1.4,2.6,72,0.00,OVC,,0.00,251.0,WeatherDisplay:10.37,2013-10-03 17:44:00,
2013-10-03 12:49:00,80.4,70.9,29.94,SSW,203,3.0,3.5,73,0.00,OVC,,0.00,197.0,WeatherDisplay:10.37,2013-10-03 17:49:00,
2013-10-03 12:54:00,80.3,70.9,29.94,SSW,208,3.1,3.5,73,0.00,OVC,,0.00,251.0,WeatherDisplay:10.37,2013-10-03 17:54:00,
2013-10-03 12:59:00,81.1,70.8,29.94,South,188,2.5,3.5,71,0.00,OVC,,0.00,323.0,WeatherDisplay:10.37,2013-10-03 17:59:00,
2013-10-03 13:04:00,82.6,71.0,29.94,ESE,118,1.3,2.6,68,0.00,OVC,,0.00,861.0,WeatherDisplay:10.37,2013-10-03 18:04:00,
2013-10-03 13:09:00,82.8,71.2,29.93,SW,217,4.2,5.3,68,0.00,OVC,,0.00,847.0,WeatherDisplay:10.37,2013-10-03 18:09:00,
2013-10-03 13:14:00,82.6,71.0,29.93,East,92,1.6,6.9,68,0.00,OVC,,0.00,847.0,WeatherDisplay:10.37,2013-10-03 18:14:00,
2013-10-03 13:19:00,82.5,70.4,29.93,SSW,194,3.1,5.8,67,0.00,OVC,,0.00,290.0,WeatherDisplay:10.37,2013-10-03 18:19:00,
2013-10-03 13:24:00,82.0,70.4,29.93,ESE,120,0.6,3.5,68,0.00,OVC,,0.00,200.0,WeatherDisplay:10.37,2013-10-03 18:24:00,
2013-10-03 13:29:00,81.5,70.3,29.92,East,88,2.0,2.3,69,0.00,OVC,,0.00,288.0,WeatherDisplay:10.37,2013-10-03 18:29:00,
2013-10-03 13:34:00,82.2,71.4,29.92,East,90,0.6,2.3,70,0.00,OVC,,0.00,309.0,WeatherDisplay:10.37,2013-10-03 18:34:00,
2013-10-03 13:39:00,82.7,71.1,29.92,East,88,4.0,5.8,68,0.00,OVC,,0.00,882.0,WeatherDisplay:10.37,2013-10-03 18:39:00,
2013-10-03 13:44:00,83.7,70.7,29.91,SSE,158,2.0,4.0,65,0.00,OVC,,0.00,830.0,WeatherDisplay:10.37,2013-10-03 18:44:00,
2013-10-03 13:49:00,84.1,71.1,29.91,SSW,198,2.4,4.0,65,0.00,OVC,,0.00,381.0,WeatherDisplay:10.37,2013-10-03 18:49:00,
2013-10-03 13:54:00,84.1,70.6,29.91,SW,225,4.2,4.2,64,0.00,OVC,,0.00,373.0,WeatherDisplay:10.37,2013-10-03 18:54:00,
2013-10-03 13:59:00,84.0,71.0,29.91,SSE,167,3.2,5.8,65,0.00,OVC,,0.00,446.0,WeatherDisplay:10.37,2013-10-03 18:59:00,
2013-10-03 14:04:00,83.2,70.2,29.91,South,173,1.1,2.6,65,0.00,SCT,,0.00,200.0,WeatherDisplay:10.37,2013-10-03 19:04:00,
2013-10-03 14:09:00,82.7,70.2,29.90,SE,141,0.1,1.3,66,0.00,SCT,,0.00,260.0,WeatherDisplay:10.37,2013-10-03 19:09:00,
2013-10-03 14:14:00,83.6,70.1,29.90,SW,219,2.3,3.5,64,0.00,SCT,,0.00,316.0,WeatherDisplay:10.37,2013-10-03 19:14:00,
2013-10-03 14:19:00,83.1,68.7,29.90,SE,142,0.3,1.3,62,0.00,SCT,,0.00,211.0,WeatherDisplay:10.37,2013-10-03 19:19:00,
2013-10-03 14:24:00,82.7,69.7,29.90,SE,135,1.5,1.5,65,0.00,SCT,,0.00,160.0,WeatherDisplay:10.37,2013-10-03 19:24:00,
2013-10-03 14:29:00,82.3,69.4,29.89,SSW,211,1.1,5.8,65,0.00,SCT,,0.00,130.0,WeatherDisplay:10.37,2013-10-03 19:29:00,
2013-10-03 14:34:00,82.0,69.5,29.90,South,180,1.0,2.3,66,0.00,SCT,,0.00,137.0,WeatherDisplay:10.37,2013-10-03 19:34:00,
2013-10-03 14:39:00,80.0,69.3,29.90,SE,131,1.7,2.3,70,0.04,RA,,0.04,130.0,WeatherDisplay:10.37,2013-10-03 19:39:00,
2013-10-03 14:44:00,78.6,72.3,29.89,ENE,76,1.2,3.5,81,0.04,RA,,0.04,466.0,WeatherDisplay:10.37,2013-10-03 19:44:00,
2013-10-03 14:49:00,78.7,72.7,29.89,ENE,76,0.0,0.0,82,0.04,SCT,,0.04,800.0,WeatherDisplay:10.37,2013-10-03 19:49:00,
2013-10-03 14:54:00,79.6,73.3,29.89,NE,46,0.0,0.0,81,0.04,SCT,,0.04,199.0,WeatherDisplay:10.37,2013-10-03 19:54:00,
2013-10-03 14:59:00,79.8,73.8,29.89,SE,137,0.6,1.3,82,0.04,SCT,,0.04,285.0,WeatherDisplay:10.37,2013-10-03 19:59:00,
2013-10-03 15:04:00,80.8,72.9,29.89,South,170,2.6,7.9,77,0.04,BKN,,0.04,733.0,WeatherDisplay:10.37,2013-10-03 20:04:00,
2013-10-03 15:09:00,82.7,71.5,29.89,South,178,3.4,5.8,69,0.04,BKN,,0.04,677.0,WeatherDisplay:10.37,2013-10-03 20:09:00,
2013-10-03 15:14:00,83.2,72.0,29.89,East,96,1.8,8.1,69,0.04,BKN,,0.04,155.0,WeatherDisplay:10.37,2013-10-03 20:14:00,
2013-10-03 15:19:00,82.6,71.0,29.89,ESE,113,0.5,1.3,68,0.04,BKN,,0.04,100.0,WeatherDisplay:10.37,2013-10-03 20:19:00,
2013-10-03 15:24:00,81.5,70.8,29.89,SE,128,2.5,5.8,70,0.04,BKN,,0.04,137.0,WeatherDisplay:10.37,2013-10-03 20:24:00,
2013-10-03 15:29:00,81.0,70.7,29.88,South,176,0.0,1.2,71,0.04,BKN,,0.04,227.0,WeatherDisplay:10.37,2013-10-03 20:29:00,
2013-10-03 15:34:00,81.6,71.7,29.88,South,178,0.4,1.2,72,0.04,BKN,,0.04,221.0,WeatherDisplay:10.37,2013-10-03 20:34:00,
2013-10-03 15:39:00,83.0,71.8,29.88,SSE,150,5.5,6.6,69,0.00,BKN,,0.04,410.0,WeatherDisplay:10.37,2013-10-03 20:39:00,
2013-10-03 15:44:00,83.2,70.2,29.88,SSW,206,3.5,6.9,65,0.00,BKN,,0.04,642.0,WeatherDisplay:10.37,2013-10-03 20:44:00,
2013-10-03 15:49:00,84.3,72.1,29.88,SSW,205,5.4,6.9,67,0.00,BKN,,0.04,596.0,WeatherDisplay:10.37,2013-10-03 20:49:00,
2013-10-03 15:54:00,84.5,69.6,29.88,SSW,205,4.8,8.1,61,0.00,BKN,,0.04,566.0,WeatherDisplay:10.37,2013-10-03 20:54:00,
2013-10-03 15:59:00,83.6,69.2,29.88,ENE,67,1.3,2.6,62,0.00,BKN,,0.04,74.0,WeatherDisplay:10.37,2013-10-03 20:59:00,
2013-10-03 16:04:00,82.4,69.0,29.88,ESE,103,1.7,2.3,64,0.00,FEW,,0.04,97.0,WeatherDisplay:10.37,2013-10-03 21:04:00,
2013-10-03 16:09:00,81.8,68.4,29.88,SSE,150,4.9,6.9,64,0.00,FEW,,0.04,127.0,WeatherDisplay:10.37,2013-10-03 21:09:00,
2013-10-03 16:14:00,81.9,69.4,29.88,East,98,1.8,4.0,66,0.00,FEW,,0.04,522.0,WeatherDisplay:10.37,2013-10-03 21:14:00,
2013-10-03 16:19:00,83.6,70.1,29.88,South,169,3.5,5.8,64,0.00,FEW,,0.04,499.0,WeatherDisplay:10.37,2013-10-03 21:19:00,
2013-10-03 16:24:00,84.6,68.7,29.87,ENE,78,2.1,2.6,59,0.00,FEW,,0.04,459.0,WeatherDisplay:10.37,2013-10-03 21:24:00,
2013-10-03 16:29:00,84.4,69.5,29.88,South,190,2.5,3.5,61,0.00,FEW,,0.04,455.0,WeatherDisplay:10.37,2013-10-03 21:29:00,
2013-10-03 16:34:00,84.3,69.4,29.88,South,180,2.9,6.9,61,0.00,FEW,,0.04,438.0,WeatherDisplay:10.37,2013-10-03 21:34:00,
2013-10-03 16:39:00,85.0,70.0,29.88,ESE,106,0.8,2.6,61,0.00,FEW,,0.04,431.0,WeatherDisplay:10.37,2013-10-03 21:39:00,
2013-10-03 16:44:00,84.7,69.3,29.87,SSE,155,6.3,6.9,60,0.00,FEW,,0.04,406.0,WeatherDisplay:10.37,2013-10-03 21:44:00,
2013-10-03 16:49:00,83.6,68.7,29.87,South,181,0.7,2.3,61,0.00,FEW,,0.04,84.0,WeatherDisplay:10.37,2013-10-03 21:49:00,
2013-10-03 16:54:00,82.7,68.4,29.87,South,176,2.1,5.8,62,0.00,FEW,,0.04,84.0,WeatherDisplay:10.37,2013-10-03 21:54:00,
2013-10-03 16:59:00,82.8,69.4,29.87,South,182,0.4,1.3,64,0.00,FEW,,0.04,98.0,WeatherDisplay:10.37,2013-10-03 21:59:00,
2013-10-03 17:04:00,83.3,68.4,29.87,South,181,2.7,6.9,61,0.00,SCT,,0.04,76.0,WeatherDisplay:10.37,2013-10-03 22:04:00,
2013-10-03 17:09:00,82.9,69.0,29.87,South,172,2.0,3.5,63,0.00,SCT,,0.04,120.0,WeatherDisplay:10.37,2013-10-03 22:09:00,
2013-10-03 17:14:00,83.2,68.8,29.87,South,169,4.0,5.8,62,0.00,SCT,,0.04,74.0,WeatherDisplay:10.37,2013-10-03 22:14:00,
2013-10-03 17:19:00,83.4,69.5,29.87,ESE,105,1.4,2.3,63,0.00,SCT,,0.04,95.0,WeatherDisplay:10.37,2013-10-03 22:19:00,
2013-10-03 17:24:00,83.2,68.3,29.87,SE,124,0.0,1.2,61,0.00,SCT,,0.04,51.0,WeatherDisplay:10.37,2013-10-03 22:24:00,
2013-10-03 17:29:00,82.4,68.1,29.87,SE,128,3.6,5.8,62,0.00,SCT,,0.04,49.0,WeatherDisplay:10.37,2013-10-03 22:29:00,
2013-10-03 17:34:00,81.9,68.1,29.87,South,186,0.3,1.2,63,0.00,SCT,,0.04,47.0,WeatherDisplay:10.37,2013-10-03 22:34:00,
2013-10-03 17:39:00,81.4,68.5,29.87,SE,143,1.1,2.3,65,0.00,SCT,,0.04,56.0,WeatherDisplay:10.37,2013-10-03 22:39:00,
2013-10-03 17:44:00,81.5,68.1,29.87,SSE,166,1.2,2.3,64,0.00,SCT,,0.04,49.0,WeatherDisplay:10.37,2013-10-03 22:44:00,
2013-10-03 17:49:00,81.6,68.7,29.87,SE,146,0.4,4.0,65,0.00,SCT,,0.04,51.0,WeatherDisplay:10.37,2013-10-03 22:49:00,
2013-10-03 17:54:00,81.8,68.4,29.87,SSE,159,0.1,3.5,64,0.00,SCT,,0.04,44.0,WeatherDisplay:10.37,2013-10-03 22:54:00,
2013-10-03 17:59:00,81.8,68.4,29.87,NE,54,1.6,2.3,64,0.00,SCT,,0.04,40.0,WeatherDisplay:10.37,2013-10-03 22:59:00,
2013-10-03 18:04:00,81.7,68.3,29.87,South,186,0.2,3.5,64,0.00,CLR,,0.04,37.0,WeatherDisplay:10.37,2013-10-03 23:04:00,
2013-10-03 18:09:00,81.6,68.2,29.87,ESE,119,1.6,2.3,64,0.00,CLR,,0.04,35.0,WeatherDisplay:10.37,2013-10-03 23:09:00,
2013-10-03 18:14:00,81.5,68.1,29.87,SSW,193,2.7,5.8,64,0.00,CLR,,0.04,32.0,WeatherDisplay:10.37,2013-10-03 23:14:00,
2013-10-03 18:19:00,81.4,68.1,29.87,SE,128,0.5,2.6,64,0.00,CLR,,0.04,28.0,WeatherDisplay:10.37,2013-10-03 23:19:00,
2013-10-03 18:24:00,81.0,68.1,29.87,ESE,115,0.1,0.0,65,0.00,CLR,,0.04,25.0,WeatherDisplay:10.37,2013-10-03 23:24:00,
2013-10-03 18:29:00,80.5,68.1,29.87,South,171,0.3,2.3,66,0.00,CLR,,0.04,21.0,WeatherDisplay:10.37,2013-10-03 23:29:00,
2013-10-03 18:34:00,80.2,67.8,29.87,ESE,117,0.3,1.2,66,0.00,CLR,,0.04,18.0,WeatherDisplay:10.37,2013-10-03 23:34:00,
2013-10-03 18:39:00,80.0,68.1,29.87,ESE,117,0.3,1.2,67,0.00,CLR,,0.04,14.0,WeatherDisplay:10.37,2013-10-03 23:39:00,
2013-10-03 18:44:00,79.6,67.7,29.87,ESE,117,0.0,0.0,67,0.00,CLR,,0.04,11.0,WeatherDisplay:10.37,2013-10-03 23:44:00,
2013-10-03 18:49:00,79.2,67.7,29.87,ESE,117,0.0,0.0,68,0.00,CLR,,0.04,7.0,WeatherDisplay:10.37,2013-10-03 23:49:00,
2013-10-03 18:54:00,78.6,68.4,29.87,ESE,117,0.0,0.0,71,0.00,CLR,,0.04,0.0,WeatherDisplay:10.37,2013-10-03 23:54:00,
2013-10-03 18:59:00,77.8,68.0,29.87,ESE,117,0.0,0.0,72,0.00,CLR,,0.04,0.0,WeatherDisplay:10.37,2013-10-03 23:59:00,
2013-10-03 19:04:00,76.9,68.4,29.87,ESE,117,0.0,0.0,75,0.00,CLR,,0.04,0.0,WeatherDisplay:10.37,2013-10-04 00:04:00,
2013-10-03 19:09:00,76.3,68.2,29.87,ESE,117,0.0,0.0,76,0.00,CLR,,0.04,0.0,WeatherDisplay:10.37,2013-10-04 00:09:00,
2013-10-03 19:14:00,76.0,68.3,29.88,ESE,117,0.0,0.0,77,0.00,CLR,,0.04,0.0,WeatherDisplay:10.37,2013-10-04 00:14:00,
2013-10-03 19:19:00,75.4,68.1,29.88,ESE,117,0.0,0.0,78,0.00,CLR,,0.04,0.0,WeatherDisplay:10.37,2013-10-04 00:19:00,
2013-10-03 19:24:00,75.1,67.8,29.88,ESE,117,0.0,0.0,78,0.00,CLR,,0.04,0.0,WeatherDisplay:10.37,2013-10-04 00:24:00,
2013-10-03 19:29:00,74.6,68.0,29.88,ESE,117,0.0,0.0,80,0.00,CLR,,0.04,0.0,WeatherDisplay:10.37,2013-10-04 00:29:00,
2013-10-03 19:34:00,73.9,67.7,29.88,ESE,117,0.0,0.0,81,0.00,CLR,,0.04,0.0,WeatherDisplay:10.37,2013-10-04 00:34:00,
2013-10-03 19:39:00,73.6,67.8,29.88,ESE,117,0.0,0.0,82,0.00,CLR,,0.04,0.0,WeatherDisplay:10.37,2013-10-04 00:39:00,
2013-10-03 19:44:00,73.5,68.0,29.88,ESE,117,0.0,0.0,83,0.00,CLR,,0.04,0.0,WeatherDisplay:10.37,2013-10-04 00:44:00,
2013-10-03 19:49:00,73.2,67.7,29.88,ESE,117,0.0,0.0,83,0.00,CLR,,0.04,0.0,WeatherDisplay:10.37,2013-10-04 00:49:00,
2013-10-03 19:54:00,72.6,67.5,29.88,ESE,117,0.0,0.0,84,0.00,CLR,,0.04,0.0,WeatherDisplay:10.37,2013-10-04 00:54:00,
2013-10-03 19:59:00,72.0,67.2,29.88,ESE,117,0.0,0.0,85,0.00,CLR,,0.04,0.0,WeatherDisplay:10.37,2013-10-04 00:59:00,
2013-10-03 20:04:00,71.7,67.3,29.89,ESE,117,0.0,0.0,86,0.00,CLR,,0.04,0.0,WeatherDisplay:10.37,2013-10-04 01:04:00,
2013-10-03 20:09:00,71.7,67.3,29.89,ESE,117,0.0,0.0,86,0.00,CLR,,0.04,0.0,WeatherDisplay:10.37,2013-10-04 01:09:00,
2013-10-03 20:14:00,71.6,67.5,29.89,ESE,117,0.0,0.0,87,0.00,CLR,,0.04,0.0,WeatherDisplay:10.37,2013-10-04 01:14:00,
2013-10-03 20:19:00,71.5,67.4,29.89,ESE,117,0.0,0.0,87,0.00,CLR,,0.04,0.0,WeatherDisplay:10.37,2013-10-04 01:19:00,
2013-10-03 20:24:00,71.4,67.3,29.89,ESE,117,0.0,0.0,87,0.00,CLR,,0.04,0.0,WeatherDisplay:10.37,2013-10-04 01:24:00,
2013-10-03 20:29:00,71.1,67.0,29.89,ESE,117,0.0,0.0,87,0.00,CLR,,0.04,0.0,WeatherDisplay:10.37,2013-10-04 01:29:00,
2013-10-03 20:34:00,70.7,67.0,29.90,ESE,117,0.0,0.0,88,0.00,CLR,,0.04,0.0,WeatherDisplay:10.37,2013-10-04 01:34:00,
2013-10-03 20:39:00,70.7,67.3,29.90,ESE,117,0.0,0.0,89,0.00,CLR,,0.04,0.0,WeatherDisplay:10.37,2013-10-04 01:39:00,
2013-10-03 20:44:00,70.6,67.2,29.90,ESE,117,0.0,0.0,89,0.00,CLR,,0.04,0.0,WeatherDisplay:10.37,2013-10-04 01:44:00,
2013-10-03 20:49:00,70.6,67.2,29.90,ESE,117,0.0,0.0,89,0.00,CLR,,0.04,0.0,WeatherDisplay:10.37,2013-10-04 01:49:00,
2013-10-03 20:54:00,70.4,67.0,29.90,ESE,117,0.0,0.0,89,0.00,CLR,,0.04,0.0,WeatherDisplay:10.37,2013-10-04 01:54:00,
2013-10-03 20:59:00,70.5,67.1,29.90,ESE,117,0.0,0.0,89,0.00,CLR,,0.04,0.0,WeatherDisplay:10.37,2013-10-04 01:59:00,
2013-10-03 21:04:00,70.3,67.2,29.91,ESE,117,0.0,0.0,90,0.00,CLR,,0.04,0.0,WeatherDisplay:10.37,2013-10-04 02:04:00,
2013-10-03 21:09:00,70.3,67.2,29.91,ESE,117,0.0,0.0,90,0.00,CLR,,0.04,0.0,WeatherDisplay:10.37,2013-10-04 02:09:00,
2013-10-03 21:14:00,70.2,67.1,29.91,ESE,117,0.0,0.0,90,0.00,CLR,,0.04,0.0,WeatherDisplay:10.37,2013-10-04 02:14:00,
2013-10-03 21:19:00,70.1,67.0,29.91,ESE,117,0.0,0.0,90,0.00,CLR,,0.04,0.0,WeatherDisplay:10.37,2013-10-04 02:19:00,
2013-10-03 21:24:00,70.0,66.9,29.91,ESE,117,0.0,0.0,90,0.00,CLR,,0.04,0.0,WeatherDisplay:10.37,2013-10-04 02:24:00,
2013-10-03 21:29:00,69.9,67.2,29.91,ESE,117,0.0,0.0,91,0.00,CLR,,0.04,0.0,WeatherDisplay:10.37,2013-10-04 02:29:00,
2013-10-03 21:34:00,69.9,67.2,29.91,ESE,117,0.0,0.0,91,0.00,CLR,,0.04,0.0,WeatherDisplay:10.37,2013-10-04 02:34:00,
2013-10-03 21:39:00,69.8,67.1,29.91,ESE,117,0.0,0.0,91,0.00,CLR,,0.04,0.0,WeatherDisplay:10.37,2013-10-04 02:39:00,
2013-10-03 21:44:00,69.7,67.0,29.91,ESE,117,0.0,0.0,91,0.00,CLR,,0.04,0.0,WeatherDisplay:10.37,2013-10-04 02:44:00,
2013-10-03 21:49:00,69.4,66.7,29.91,ESE,117,0.0,0.0,91,0.00,CLR,,0.04,0.0,WeatherDisplay:10.37,2013-10-04 02:49:00,
2013-10-03 21:54:00,69.5,67.1,29.92,ESE,117,0.0,0.0,92,0.00,CLR,,0.04,0.0,WeatherDisplay:10.37,2013-10-04 02:54:00,
2013-10-03 21:59:00,69.5,66.8,29.92,ESE,117,0.0,0.0,91,0.00,CLR,,0.04,0.0,WeatherDisplay:10.37,2013-10-04 02:59:00,
2013-10-03 22:04:00,69.5,66.8,29.92,ESE,117,0.0,0.0,91,0.00,CLR,,0.04,0.0,WeatherDisplay:10.37,2013-10-04 03:04:00,
2013-10-03 22:09:00,69.7,67.3,29.92,ESE,117,0.0,0.0,92,0.00,CLR,,0.04,0.0,WeatherDisplay:10.37,2013-10-04 03:09:00,
2013-10-03 22:14:00,69.7,67.0,29.92,ESE,117,0.0,0.0,91,0.00,CLR,,0.04,0.0,WeatherDisplay:10.37,2013-10-04 03:14:00,
2013-10-03 22:19:00,69.7,67.0,29.92,ESE,117,0.0,0.0,91,0.00,CLR,,0.04,0.0,WeatherDisplay:10.37,2013-10-04 03:19:00,
2013-10-03 22:24:00,69.7,67.0,29.92,ESE,117,0.0,0.0,91,0.00,CLR,,0.04,0.0,WeatherDisplay:10.37,2013-10-04 03:24:00,
2013-10-03 22:29:00,69.7,66.6,29.92,ESE,117,0.0,0.0,90,0.00,CLR,,0.04,0.0,WeatherDisplay:10.37,2013-10-04 03:29:00,
2013-10-03 22:34:00,69.6,66.5,29.92,ESE,117,0.0,0.0,90,0.00,CLR,,0.04,0.0,WeatherDisplay:10.37,2013-10-04 03:34:00,
2013-10-03 22:39:00,69.6,66.5,29.92,ESE,117,0.0,0.0,90,0.00,CLR,,0.04,0.0,WeatherDisplay:10.37,2013-10-04 03:39:00,
2013-10-03 22:44:00,69.5,66.4,29.92,ESE,117,0.0,0.0,90,0.00,CLR,,0.04,0.0,WeatherDisplay:10.37,2013-10-04 03:44:00,
2013-10-03 22:49:00,69.5,66.8,29.93,ESE,117,0.0,0.0,91,0.00,CLR,,0.04,0.0,WeatherDisplay:10.37,2013-10-04 03:49:00,
2013-10-03 22:54:00,69.4,66.3,29.92,ESE,117,0.0,0.0,90,0.00,CLR,,0.04,0.0,WeatherDisplay:10.37,2013-10-04 03:54:00,
2013-10-03 22:59:00,69.4,66.7,29.92,ESE,117,0.0,0.0,91,0.00,CLR,,0.04,0.0,WeatherDisplay:10.37,2013-10-04 03:59:00,
2013-10-03 23:32:00,69.2,66.8,29.93,ESE,117,0.0,0.0,92,0.00,CLR,,0.04,0.0,WeatherDisplay:10.37,2013-10-04 04:32:00,
2013-10-03 23:33:00,69.3,66.9,29.93,ESE,117,0.0,0.0,92,0.00,CLR,,0.04,0.0,WeatherDisplay:10.37,2013-10-04 04:33:00,
2013-10-03 23:34:00,69.3,66.9,29.93,ESE,117,0.0,0.0,92,0.00,CLR,,0.04,0.0,WeatherDisplay:10.37,2013-10-04 04:34:00,
2013-10-03 23:35:00,69.3,66.9,29.93,ESE,117,0.0,0.0,92,0.00,CLR,,0.04,0.0,WeatherDisplay:10.37,2013-10-04 04:35:00,
2013-10-03 23:38:00,69.2,66.8,29.93,ESE,117,0.0,0.0,92,0.00,CLR,,0.04,0.0,WeatherDisplay:10.37,2013-10-04 04:38:00,
2013-10-03 23:42:00,69.2,66.8,29.93,ESE,117,0.4,2.3,92,0.00,CLR,,0.04,0.0,WeatherDisplay:10.37,2013-10-04 04:42:00,
2013-10-03 23:43:00,69.2,66.8,29.93,ESE,117,1.7,2.3,92,0.00,CLR,,0.04,0.0,WeatherDisplay:10.37,2013-10-04 04:43:00,
2013-10-03 23:44:00,69.2,66.8,29.93,ESE,117,1.4,2.3,92,0.00,CLR,,0.04,0.0,WeatherDisplay:10.37,2013-10-04 04:44:00,
2013-10-03 23:46:00,69.3,66.9,29.93,ESE,117,0.5,1.3,92,0.00,CLR,,0.04,0.0,WeatherDisplay:10.37,2013-10-04 04:46:00,
2013-10-03 23:48:00,69.3,66.9,29.93,ESE,117,0.2,1.2,92,0.00,CLR,,0.04,0.0,WeatherDisplay:10.37,2013-10-04 04:48:00,
2013-10-03 23:51:00,69.2,66.8,29.92,ESE,117,0.0,0.0,92,0.00,CLR,,0.04,0.0,WeatherDisplay:10.37,2013-10-04 04:51:00,
2013-10-03 23:56:00,69.0,66.6,29.92,ESE,117,0.6,1.3,92,0.00,CLR,,0.04,0.0,WeatherDisplay:10.37,2013-10-04 04:56:00,